sensor_id;sensor_type;location;lat;lon;timestamp;P1;durP1;ratioP1;P2;durP2;ratioP2
33094;SDS011;19459;53.044;8.910;2022-09-03T00:02:04;2.08;;;1.40;;
33094;SDS011;19459;53.044;8.910;2022-09-03T00:07:25;2.85;;;1.23;;
33094;SDS011;19459;53.044;8.910;2022-09-03T00:10:03;4.20;;;1.38;;
33094;SDS011;19459;53.044;8.910;2022-09-03T00:12:36;2.45;;;1.33;;
33094;SDS011;19459;53.044;8.910;2022-09-03T00:15:11;3.75;;;1.50;;
33094;SDS011;19459;53.044;8.910;2022-09-03T00:18:05;3.35;;;1.27;;
33094;SDS011;19459;53.044;8.910;2022-09-03T00:20:46;3.70;;;1.15;;
33094;SDS011;19459;53.044;8.910;2022-09-03T00:23:34;2.17;;;1.23;;
33094;SDS011;19459;53.044;8.910;2022-09-03T00:26:13;1.98;;;1.35;;
33094;SDS011;19459;53.044;8.910;2022-09-03T00:29:00;2.67;;;1.13;;
33094;SDS011;19459;53.044;8.910;2022-09-03T00:32:00;4.13;;;1.10;;
33094;SDS011;19459;53.044;8.910;2022-09-03T00:34:34;2.63;;;1.40;;
33094;SDS011;19459;53.044;8.910;2022-09-03T00:37:06;1.33;;;1.05;;
33094;SDS011;19459;53.044;8.910;2022-09-03T00:39:34;3.03;;;1.52;;
33094;SDS011;19459;53.044;8.910;2022-09-03T00:48:02;1.60;;;1.45;;
33094;SDS011;19459;53.044;8.910;2022-09-03T00:54:00;2.53;;;1.27;;
33094;SDS011;19459;53.044;8.910;2022-09-03T01:02:40;2.17;;;1.40;;
33094;SDS011;19459;53.044;8.910;2022-09-03T01:07:45;1.38;;;1.05;;
33094;SDS011;19459;53.044;8.910;2022-09-03T01:14:05;2.40;;;1.48;;
33094;SDS011;19459;53.044;8.910;2022-09-03T01:19:54;3.03;;;1.05;;
33094;SDS011;19459;53.044;8.910;2022-09-03T01:33:49;2.45;;;1.67;;
33094;SDS011;19459;53.044;8.910;2022-09-03T01:39:20;1.17;;;1.08;;
33094;SDS011;19459;53.044;8.910;2022-09-03T01:42:14;3.88;;;1.77;;
33094;SDS011;19459;53.044;8.910;2022-09-03T01:50:57;2.13;;;1.48;;
33094;SDS011;19459;53.044;8.910;2022-09-03T01:56:33;2.33;;;1.35;;
33094;SDS011;19459;53.044;8.910;2022-09-03T01:59:27;3.10;;;1.33;;
33094;SDS011;19459;53.044;8.910;2022-09-03T02:02:04;2.53;;;1.60;;
33094;SDS011;19459;53.044;8.910;2022-09-03T02:04:37;2.72;;;1.50;;
33094;SDS011;19459;53.044;8.910;2022-09-03T02:07:02;1.85;;;1.38;;
33094;SDS011;19459;53.044;8.910;2022-09-03T02:09:29;1.55;;;1.45;;
33094;SDS011;19459;53.044;8.910;2022-09-03T02:12:02;2.72;;;1.27;;
33094;SDS011;19459;53.044;8.910;2022-09-03T02:14:32;3.38;;;1.35;;
33094;SDS011;19459;53.044;8.910;2022-09-03T02:17:00;2.05;;;1.40;;
33094;SDS011;19459;53.044;8.910;2022-09-03T02:19:29;3.78;;;1.40;;
33094;SDS011;19459;53.044;8.910;2022-09-03T02:21:56;3.00;;;1.23;;
33094;SDS011;19459;53.044;8.910;2022-09-03T02:24:23;3.72;;;1.13;;
33094;SDS011;19459;53.044;8.910;2022-09-03T02:26:50;1.83;;;1.35;;
33094;SDS011;19459;53.044;8.910;2022-09-03T02:29:17;4.60;;;1.42;;
33094;SDS011;19459;53.044;8.910;2022-09-03T02:31:43;3.67;;;1.38;;
33094;SDS011;19459;53.044;8.910;2022-09-03T02:34:09;2.22;;;1.58;;
33094;SDS011;19459;53.044;8.910;2022-09-03T02:36:37;1.92;;;1.58;;
33094;SDS011;19459;53.044;8.910;2022-09-03T02:39:07;2.95;;;1.45;;
33094;SDS011;19459;53.044;8.910;2022-09-03T02:41:33;3.83;;;1.77;;
33094;SDS011;19459;53.044;8.910;2022-09-03T02:46:45;3.28;;;1.52;;
33094;SDS011;19459;53.044;8.910;2022-09-03T02:49:18;4.07;;;1.50;;
33094;SDS011;19459;53.044;8.910;2022-09-03T02:51:43;5.75;;;1.70;;
33094;SDS011;19459;53.044;8.910;2022-09-03T02:54:09;3.60;;;1.60;;
33094;SDS011;19459;53.044;8.910;2022-09-03T02:56:36;3.30;;;1.90;;
33094;SDS011;19459;53.044;8.910;2022-09-03T02:59:03;3.03;;;1.70;;
33094;SDS011;19459;53.044;8.910;2022-09-03T03:01:31;2.88;;;1.60;;
33094;SDS011;19459;53.044;8.910;2022-09-03T03:03:58;2.08;;;1.60;;
33094;SDS011;19459;53.044;8.910;2022-09-03T03:06:24;3.38;;;1.65;;
33094;SDS011;19459;53.044;8.910;2022-09-03T03:08:50;5.38;;;1.73;;
33094;SDS011;19459;53.044;8.910;2022-09-03T03:11:19;2.92;;;1.50;;
33094;SDS011;19459;53.044;8.910;2022-09-03T03:13:45;3.90;;;1.90;;
33094;SDS011;19459;53.044;8.910;2022-09-03T03:16:11;4.45;;;1.73;;
33094;SDS011;19459;53.044;8.910;2022-09-03T03:18:38;2.75;;;1.80;;
33094;SDS011;19459;53.044;8.910;2022-09-03T03:21:05;1.95;;;1.38;;
33094;SDS011;19459;53.044;8.910;2022-09-03T03:23:39;2.38;;;1.48;;
33094;SDS011;19459;53.044;8.910;2022-09-03T03:26:09;4.50;;;2.05;;
33094;SDS011;19459;53.044;8.910;2022-09-03T03:28:38;5.28;;;1.88;;
33094;SDS011;19459;53.044;8.910;2022-09-03T03:33:54;3.58;;;1.90;;
33094;SDS011;19459;53.044;8.910;2022-09-03T03:36:22;3.72;;;2.78;;
33094;SDS011;19459;53.044;8.910;2022-09-03T03:38:53;5.05;;;2.15;;
33094;SDS011;19459;53.044;8.910;2022-09-03T03:41:22;6.38;;;2.10;;
33094;SDS011;19459;53.044;8.910;2022-09-03T03:43:56;4.45;;;1.80;;
33094;SDS011;19459;53.044;8.910;2022-09-03T03:46:29;3.75;;;2.17;;
33094;SDS011;19459;53.044;8.910;2022-09-03T03:49:03;6.00;;;1.73;;
33094;SDS011;19459;53.044;8.910;2022-09-03T03:51:33;2.97;;;1.83;;
33094;SDS011;19459;53.044;8.910;2022-09-03T03:54:00;1.85;;;1.40;;
33094;SDS011;19459;53.044;8.910;2022-09-03T03:56:26;5.88;;;2.67;;
33094;SDS011;19459;53.044;8.910;2022-09-03T03:58:52;2.97;;;1.83;;
33094;SDS011;19459;53.044;8.910;2022-09-03T04:01:19;3.60;;;1.73;;
33094;SDS011;19459;53.044;8.910;2022-09-03T04:03:50;3.05;;;2.35;;
33094;SDS011;19459;53.044;8.910;2022-09-03T04:06:19;2.88;;;2.10;;
33094;SDS011;19459;53.044;8.910;2022-09-03T04:08:46;2.45;;;1.90;;
33094;SDS011;19459;53.044;8.910;2022-09-03T04:11:14;4.85;;;2.17;;
33094;SDS011;19459;53.044;8.910;2022-09-03T04:13:43;5.18;;;2.33;;
33094;SDS011;19459;53.044;8.910;2022-09-03T04:18:42;3.42;;;2.30;;
33094;SDS011;19459;53.044;8.910;2022-09-03T04:21:10;4.97;;;2.33;;
33094;SDS011;19459;53.044;8.910;2022-09-03T04:23:39;3.83;;;2.58;;
33094;SDS011;19459;53.044;8.910;2022-09-03T04:26:09;5.30;;;2.65;;
33094;SDS011;19459;53.044;8.910;2022-09-03T04:28:38;4.45;;;2.20;;
33094;SDS011;19459;53.044;8.910;2022-09-03T04:31:06;5.30;;;2.53;;
33094;SDS011;19459;53.044;8.910;2022-09-03T04:33:35;4.18;;;2.50;;
33094;SDS011;19459;53.044;8.910;2022-09-03T04:36:03;2.97;;;2.17;;
33094;SDS011;19459;53.044;8.910;2022-09-03T04:38:36;5.63;;;2.05;;
33094;SDS011;19459;53.044;8.910;2022-09-03T04:41:05;5.15;;;2.50;;
33094;SDS011;19459;53.044;8.910;2022-09-03T04:43:33;3.28;;;1.95;;
33094;SDS011;19459;53.044;8.910;2022-09-03T04:46:00;5.72;;;2.40;;
33094;SDS011;19459;53.044;8.910;2022-09-03T04:48:31;5.57;;;2.58;;
33094;SDS011;19459;53.044;8.910;2022-09-03T04:51:05;7.43;;;2.47;;
33094;SDS011;19459;53.044;8.910;2022-09-03T04:53:38;5.32;;;2.33;;
33094;SDS011;19459;53.044;8.910;2022-09-03T04:56:14;4.72;;;2.13;;
33094;SDS011;19459;53.044;8.910;2022-09-03T04:58:57;4.30;;;2.22;;
33094;SDS011;19459;53.044;8.910;2022-09-03T05:01:28;2.58;;;1.90;;
33094;SDS011;19459;53.044;8.910;2022-09-03T05:03:56;10.98;;;2.13;;
33094;SDS011;19459;53.044;8.910;2022-09-03T05:06:24;4.72;;;1.67;;
33094;SDS011;19459;53.044;8.910;2022-09-03T05:08:54;2.08;;;1.80;;
33094;SDS011;19459;53.044;8.910;2022-09-03T05:11:20;3.90;;;2.25;;
33094;SDS011;19459;53.044;8.910;2022-09-03T05:13:51;4.20;;;2.00;;
33094;SDS011;19459;53.044;8.910;2022-09-03T05:16:20;7.50;;;1.98;;
33094;SDS011;19459;53.044;8.910;2022-09-03T05:18:47;5.28;;;2.08;;
33094;SDS011;19459;53.044;8.910;2022-09-03T05:21:18;7.95;;;2.03;;
33094;SDS011;19459;53.044;8.910;2022-09-03T05:23:44;13.70;;;2.67;;
33094;SDS011;19459;53.044;8.910;2022-09-03T05:26:13;8.35;;;1.90;;
33094;SDS011;19459;53.044;8.910;2022-09-03T05:28:42;4.95;;;1.55;;
33094;SDS011;19459;53.044;8.910;2022-09-03T05:31:13;8.10;;;1.63;;
33094;SDS011;19459;53.044;8.910;2022-09-03T05:33:43;5.57;;;1.70;;
33094;SDS011;19459;53.044;8.910;2022-09-03T05:36:16;3.50;;;1.65;;
33094;SDS011;19459;53.044;8.910;2022-09-03T05:38:47;2.35;;;1.33;;
33094;SDS011;19459;53.044;8.910;2022-09-03T05:41:14;2.63;;;1.38;;
33094;SDS011;19459;53.044;8.910;2022-09-03T05:43:41;4.30;;;1.63;;
33094;SDS011;19459;53.044;8.910;2022-09-03T05:46:11;2.47;;;1.23;;
33094;SDS011;19459;53.044;8.910;2022-09-03T05:48:42;2.75;;;1.50;;
33094;SDS011;19459;53.044;8.910;2022-09-03T05:51:10;3.72;;;1.60;;
33094;SDS011;19459;53.044;8.910;2022-09-03T05:53:42;3.20;;;1.55;;
33094;SDS011;19459;53.044;8.910;2022-09-03T05:56:17;5.03;;;1.95;;
33094;SDS011;19459;53.044;8.910;2022-09-03T05:58:46;1.73;;;1.15;;
33094;SDS011;19459;53.044;8.910;2022-09-03T06:01:18;2.03;;;1.38;;
33094;SDS011;19459;53.044;8.910;2022-09-03T06:03:55;6.38;;;2.00;;
33094;SDS011;19459;53.044;8.910;2022-09-03T06:06:26;3.05;;;1.25;;
33094;SDS011;19459;53.044;8.910;2022-09-03T06:08:58;2.15;;;1.45;;
33094;SDS011;19459;53.044;8.910;2022-09-03T06:11:29;6.40;;;1.52;;
33094;SDS011;19459;53.044;8.910;2022-09-03T06:13:59;4.93;;;1.10;;
33094;SDS011;19459;53.044;8.910;2022-09-03T06:16:29;4.13;;;1.55;;
33094;SDS011;19459;53.044;8.910;2022-09-03T06:18:56;3.05;;;1.30;;
33094;SDS011;19459;53.044;8.910;2022-09-03T06:21:22;2.85;;;1.60;;
33094;SDS011;19459;53.044;8.910;2022-09-03T06:23:52;7.78;;;1.40;;
33094;SDS011;19459;53.044;8.910;2022-09-03T06:26:23;1.80;;;1.02;;
33094;SDS011;19459;53.044;8.910;2022-09-03T06:28:49;1.98;;;1.33;;
33094;SDS011;19459;53.044;8.910;2022-09-03T06:31:19;3.40;;;1.60;;
33094;SDS011;19459;53.044;8.910;2022-09-03T06:33:45;3.70;;;1.30;;
33094;SDS011;19459;53.044;8.910;2022-09-03T06:36:13;1.83;;;1.15;;
33094;SDS011;19459;53.044;8.910;2022-09-03T06:38:44;1.38;;;1.10;;
33094;SDS011;19459;53.044;8.910;2022-09-03T06:41:15;4.43;;;1.25;;
33094;SDS011;19459;53.044;8.910;2022-09-03T06:43:49;2.38;;;1.38;;
33094;SDS011;19459;53.044;8.910;2022-09-03T06:46:23;8.30;;;1.60;;
33094;SDS011;19459;53.044;8.910;2022-09-03T06:48:49;4.28;;;1.75;;
33094;SDS011;19459;53.044;8.910;2022-09-03T06:51:16;2.25;;;1.30;;
33094;SDS011;19459;53.044;8.910;2022-09-03T06:53:46;4.05;;;1.15;;
33094;SDS011;19459;53.044;8.910;2022-09-03T06:56:15;3.83;;;1.42;;
33094;SDS011;19459;53.044;8.910;2022-09-03T06:58:45;2.45;;;1.40;;
33094;SDS011;19459;53.044;8.910;2022-09-03T07:01:13;7.10;;;1.27;;
33094;SDS011;19459;53.044;8.910;2022-09-03T07:03:45;8.23;;;1.42;;
33094;SDS011;19459;53.044;8.910;2022-09-03T07:06:16;2.45;;;1.20;;
33094;SDS011;19459;53.044;8.910;2022-09-03T07:08:44;2.78;;;1.23;;
33094;SDS011;19459;53.044;8.910;2022-09-03T07:11:11;6.05;;;1.50;;
33094;SDS011;19459;53.044;8.910;2022-09-03T07:13:41;4.28;;;1.65;;
33094;SDS011;19459;53.044;8.910;2022-09-03T07:16:13;7.38;;;1.38;;
33094;SDS011;19459;53.044;8.910;2022-09-03T07:18:40;4.75;;;2.17;;
33094;SDS011;19459;53.044;8.910;2022-09-03T07:21:11;7.32;;;1.30;;
33094;SDS011;19459;53.044;8.910;2022-09-03T07:23:40;3.90;;;1.30;;
33094;SDS011;19459;53.044;8.910;2022-09-03T07:26:14;7.55;;;1.40;;
33094;SDS011;19459;53.044;8.910;2022-09-03T07:28:48;9.25;;;1.45;;
33094;SDS011;19459;53.044;8.910;2022-09-03T07:31:17;2.90;;;1.23;;
33094;SDS011;19459;53.044;8.910;2022-09-03T07:33:49;4.35;;;1.40;;
33094;SDS011;19459;53.044;8.910;2022-09-03T07:36:43;4.45;;;1.50;;
33094;SDS011;19459;53.044;8.910;2022-09-03T07:39:11;1.67;;;1.30;;
33094;SDS011;19459;53.044;8.910;2022-09-03T07:41:39;3.58;;;1.33;;
33094;SDS011;19459;53.044;8.910;2022-09-03T07:44:10;2.22;;;1.20;;
33094;SDS011;19459;53.044;8.910;2022-09-03T07:46:39;1.90;;;1.60;;
33094;SDS011;19459;53.044;8.910;2022-09-03T07:49:05;6.57;;;1.30;;
33094;SDS011;19459;53.044;8.910;2022-09-03T07:51:35;7.47;;;1.40;;
33094;SDS011;19459;53.044;8.910;2022-09-03T07:54:09;3.63;;;1.40;;
33094;SDS011;19459;53.044;8.910;2022-09-03T07:56:35;4.43;;;1.85;;
33094;SDS011;19459;53.044;8.910;2022-09-03T07:59:03;4.78;;;1.58;;
33094;SDS011;19459;53.044;8.910;2022-09-03T08:01:30;4.80;;;1.65;;
33094;SDS011;19459;53.044;8.910;2022-09-03T08:03:57;5.85;;;1.85;;
33094;SDS011;19459;53.044;8.910;2022-09-03T08:06:23;5.75;;;1.40;;
33094;SDS011;19459;53.044;8.910;2022-09-03T08:08:59;5.55;;;1.80;;
33094;SDS011;19459;53.044;8.910;2022-09-03T08:11:28;4.00;;;1.30;;
33094;SDS011;19459;53.044;8.910;2022-09-03T08:13:56;2.33;;;1.20;;
33094;SDS011;19459;53.044;8.910;2022-09-03T08:16:31;7.95;;;1.33;;
33094;SDS011;19459;53.044;8.910;2022-09-03T08:19:02;2.25;;;1.33;;
33094;SDS011;19459;53.044;8.910;2022-09-03T08:21:29;6.60;;;1.42;;
33094;SDS011;19459;53.044;8.910;2022-09-03T08:23:55;3.83;;;1.58;;
33094;SDS011;19459;53.044;8.910;2022-09-03T08:26:31;5.28;;;1.73;;
33094;SDS011;19459;53.044;8.910;2022-09-03T08:29:00;5.47;;;1.63;;
33094;SDS011;19459;53.044;8.910;2022-09-03T08:31:27;7.70;;;1.20;;
33094;SDS011;19459;53.044;8.910;2022-09-03T08:33:54;2.05;;;1.30;;
33094;SDS011;19459;53.044;8.910;2022-09-03T08:36:23;5.88;;;1.58;;
33094;SDS011;19459;53.044;8.910;2022-09-03T08:38:54;1.30;;;1.02;;
33094;SDS011;19459;53.044;8.910;2022-09-03T08:41:27;5.05;;;1.70;;
33094;SDS011;19459;53.044;8.910;2022-09-03T08:52:57;5.85;;;1.25;;
33094;SDS011;19459;53.044;8.910;2022-09-03T08:55:38;8.05;;;1.33;;
33094;SDS011;19459;53.044;8.910;2022-09-03T08:58:20;6.35;;;1.38;;
33094;SDS011;19459;53.044;8.910;2022-09-03T09:11:48;4.93;;;1.13;;
33094;SDS011;19459;53.044;8.910;2022-09-03T09:14:46;5.22;;;1.42;;
33094;SDS011;19459;53.044;8.910;2022-09-03T09:20:38;7.20;;;1.77;;
33094;SDS011;19459;53.044;8.910;2022-09-03T09:23:17;6.80;;;1.38;;
33094;SDS011;19459;53.044;8.910;2022-09-03T09:25:54;2.05;;;1.25;;
33094;SDS011;19459;53.044;8.910;2022-09-03T09:28:25;4.20;;;1.40;;
33094;SDS011;19459;53.044;8.910;2022-09-03T09:31:07;3.78;;;1.13;;
33094;SDS011;19459;53.044;8.910;2022-09-03T09:33:39;2.60;;;1.70;;
33094;SDS011;19459;53.044;8.910;2022-09-03T09:36:06;3.30;;;1.30;;
33094;SDS011;19459;53.044;8.910;2022-09-03T09:38:37;1.67;;;1.10;;
33094;SDS011;19459;53.044;8.910;2022-09-03T09:41:13;1.73;;;1.15;;
33094;SDS011;19459;53.044;8.910;2022-09-03T09:43:44;3.15;;;1.10;;
33094;SDS011;19459;53.044;8.910;2022-09-03T09:46:15;4.57;;;1.45;;
33094;SDS011;19459;53.044;8.910;2022-09-03T09:48:50;2.97;;;1.30;;
33094;SDS011;19459;53.044;8.910;2022-09-03T09:51:24;5.38;;;1.50;;
33094;SDS011;19459;53.044;8.910;2022-09-03T09:54:03;8.23;;;1.40;;
33094;SDS011;19459;53.044;8.910;2022-09-03T09:56:42;6.65;;;1.30;;
33094;SDS011;19459;53.044;8.910;2022-09-03T09:59:09;2.80;;;1.10;;
33094;SDS011;19459;53.044;8.910;2022-09-03T10:01:37;3.97;;;0.90;;
33094;SDS011;19459;53.044;8.910;2022-09-03T10:06:36;2.65;;;1.00;;
33094;SDS011;19459;53.044;8.910;2022-09-03T10:09:19;4.63;;;1.17;;
33094;SDS011;19459;53.044;8.910;2022-09-03T10:16:53;3.17;;;1.25;;
33094;SDS011;19459;53.044;8.910;2022-09-03T10:19:39;2.67;;;1.10;;
33094;SDS011;19459;53.044;8.910;2022-09-03T10:22:37;3.60;;;1.25;;
33094;SDS011;19459;53.044;8.910;2022-09-03T10:25:10;4.43;;;1.00;;
33094;SDS011;19459;53.044;8.910;2022-09-03T10:27:40;5.47;;;1.13;;
33094;SDS011;19459;53.044;8.910;2022-09-03T10:30:09;2.40;;;1.00;;
33094;SDS011;19459;53.044;8.910;2022-09-03T10:35:42;6.30;;;1.20;;
33094;SDS011;19459;53.044;8.910;2022-09-03T10:38:17;3.40;;;1.35;;
33094;SDS011;19459;53.044;8.910;2022-09-03T10:46:25;2.45;;;1.00;;
33094;SDS011;19459;53.044;8.910;2022-09-03T10:49:05;4.97;;;1.00;;
33094;SDS011;19459;53.044;8.910;2022-09-03T10:54:37;4.88;;;1.13;;
33094;SDS011;19459;53.044;8.910;2022-09-03T10:57:37;2.78;;;1.10;;
33094;SDS011;19459;53.044;8.910;2022-09-03T11:00:27;1.58;;;1.13;;
33094;SDS011;19459;53.044;8.910;2022-09-03T11:08:36;1.58;;;0.95;;
33094;SDS011;19459;53.044;8.910;2022-09-03T11:11:54;2.72;;;0.95;;
33094;SDS011;19459;53.044;8.910;2022-09-03T11:14:09;7.05;;;1.20;;
33094;SDS011;19459;53.044;8.910;2022-09-03T11:16:51;3.15;;;0.98;;
33094;SDS011;19459;53.044;8.910;2022-09-03T11:19:35;2.00;;;0.93;;
33094;SDS011;19459;53.044;8.910;2022-09-03T11:22:12;4.80;;;1.20;;
33094;SDS011;19459;53.044;8.910;2022-09-03T11:24:42;4.03;;;1.23;;
33094;SDS011;19459;53.044;8.910;2022-09-03T11:27:19;4.13;;;1.10;;
33094;SDS011;19459;53.044;8.910;2022-09-03T11:30:25;3.63;;;1.20;;
33094;SDS011;19459;53.044;8.910;2022-09-03T11:33:11;8.43;;;1.30;;
33094;SDS011;19459;53.044;8.910;2022-09-03T11:35:38;4.85;;;1.15;;
33094;SDS011;19459;53.044;8.910;2022-09-03T11:38:18;4.10;;;0.88;;
33094;SDS011;19459;53.044;8.910;2022-09-03T11:41:03;1.80;;;1.02;;
33094;SDS011;19459;53.044;8.910;2022-09-03T11:43:39;4.97;;;1.05;;
33094;SDS011;19459;53.044;8.910;2022-09-03T11:48:52;5.00;;;1.45;;
33094;SDS011;19459;53.044;8.910;2022-09-03T11:51:34;2.75;;;1.10;;
33094;SDS011;19459;53.044;8.910;2022-09-03T11:56:50;4.43;;;1.35;;
33094;SDS011;19459;53.044;8.910;2022-09-03T11:59:41;1.77;;;1.20;;
33094;SDS011;19459;53.044;8.910;2022-09-03T12:02:24;6.28;;;1.60;;
33094;SDS011;19459;53.044;8.910;2022-09-03T12:07:59;4.38;;;0.88;;
33094;SDS011;19459;53.044;8.910;2022-09-03T12:14:25;1.73;;;0.90;;
33094;SDS011;19459;53.044;8.910;2022-09-03T12:19:58;6.53;;;1.45;;
33094;SDS011;19459;53.044;8.910;2022-09-03T12:22:25;10.73;;;1.50;;
33094;SDS011;19459;53.044;8.910;2022-09-03T12:24:53;2.88;;;1.23;;
33094;SDS011;19459;53.044;8.910;2022-09-03T12:27:21;3.33;;;0.95;;
33094;SDS011;19459;53.044;8.910;2022-09-03T12:29:56;4.18;;;1.05;;
33094;SDS011;19459;53.044;8.910;2022-09-03T12:32:34;1.98;;;1.08;;
33094;SDS011;19459;53.044;8.910;2022-09-03T12:35:17;5.85;;;0.90;;
33094;SDS011;19459;53.044;8.910;2022-09-03T12:37:50;7.35;;;1.17;;
33094;SDS011;19459;53.044;8.910;2022-09-03T12:42:48;5.93;;;0.93;;
33094;SDS011;19459;53.044;8.910;2022-09-03T12:45:16;1.60;;;0.80;;
33094;SDS011;19459;53.044;8.910;2022-09-03T12:47:48;1.75;;;1.30;;
33094;SDS011;19459;53.044;8.910;2022-09-03T12:50:19;3.65;;;1.08;;
33094;SDS011;19459;53.044;8.910;2022-09-03T12:52:51;2.67;;;1.00;;
33094;SDS011;19459;53.044;8.910;2022-09-03T12:55:35;7.43;;;1.05;;
33094;SDS011;19459;53.044;8.910;2022-09-03T12:58:24;8.82;;;1.20;;
33094;SDS011;19459;53.044;8.910;2022-09-03T13:06:22;1.75;;;0.98;;
33094;SDS011;19459;53.044;8.910;2022-09-03T13:09:01;5.25;;;1.30;;
33094;SDS011;19459;53.044;8.910;2022-09-03T13:14:07;7.18;;;1.45;;
33094;SDS011;19459;53.044;8.910;2022-09-03T13:31:01;3.58;;;1.20;;
33094;SDS011;19459;53.044;8.910;2022-09-03T14:07:16;10.63;;;1.55;;
33094;SDS011;19459;53.044;8.910;2022-09-03T14:19:02;3.15;;;0.98;;
33094;SDS011;19459;53.044;8.910;2022-09-03T14:24:15;2.95;;;0.77;;
33094;SDS011;19459;53.044;8.910;2022-09-03T14:27:08;1.80;;;1.17;;
33094;SDS011;19459;53.044;8.910;2022-09-03T14:29:35;11.88;;;1.35;;
33094;SDS011;19459;53.044;8.910;2022-09-03T14:41:03;6.40;;;1.13;;
33094;SDS011;19459;53.044;8.910;2022-09-03T14:46:42;3.10;;;1.10;;
33094;SDS011;19459;53.044;8.910;2022-09-03T14:55:11;4.40;;;1.20;;
33094;SDS011;19459;53.044;8.910;2022-09-03T15:00:47;0.90;;;0.82;;
33094;SDS011;19459;53.044;8.910;2022-09-03T15:06:22;2.15;;;1.10;;
33094;SDS011;19459;53.044;8.910;2022-09-03T15:09:30;2.97;;;0.90;;
33094;SDS011;19459;53.044;8.910;2022-09-03T15:14:54;2.63;;;1.00;;
33094;SDS011;19459;53.044;8.910;2022-09-03T15:17:44;4.50;;;1.40;;
33094;SDS011;19459;53.044;8.910;2022-09-03T15:20:41;4.95;;;1.20;;
33094;SDS011;19459;53.044;8.910;2022-09-03T15:23:49;4.13;;;1.70;;
33094;SDS011;19459;53.044;8.910;2022-09-03T15:40:59;4.95;;;1.33;;
33094;SDS011;19459;53.044;8.910;2022-09-03T15:43:32;2.83;;;1.10;;
33094;SDS011;19459;53.044;8.910;2022-09-03T16:13:35;2.13;;;1.00;;
33094;SDS011;19459;53.044;8.910;2022-09-03T16:16:15;2.35;;;1.20;;
33094;SDS011;19459;53.044;8.910;2022-09-03T16:18:56;8.75;;;1.67;;
33094;SDS011;19459;53.044;8.910;2022-09-03T16:21:44;5.03;;;1.30;;
33094;SDS011;19459;53.044;8.910;2022-09-03T16:30:00;4.37;;;1.30;;
33094;SDS011;19459;53.044;8.910;2022-09-03T16:44:30;5.75;;;1.55;;
33094;SDS011;19459;53.044;8.910;2022-09-03T16:47:45;4.22;;;1.30;;
33094;SDS011;19459;53.044;8.910;2022-09-03T16:53:27;6.35;;;1.40;;
33094;SDS011;19459;53.044;8.910;2022-09-03T17:14:38;3.65;;;1.60;;
33094;SDS011;19459;53.044;8.910;2022-09-03T17:30:18;8.57;;;2.35;;
33094;SDS011;19459;53.044;8.910;2022-09-03T17:38:58;5.93;;;3.28;;
33094;SDS011;19459;53.044;8.910;2022-09-03T17:50:47;5.05;;;2.05;;
33094;SDS011;19459;53.044;8.910;2022-09-03T17:53:38;4.00;;;2.25;;
33094;SDS011;19459;53.044;8.910;2022-09-03T18:02:28;2.83;;;1.77;;
33094;SDS011;19459;53.044;8.910;2022-09-03T18:05:22;2.85;;;2.13;;
33094;SDS011;19459;53.044;8.910;2022-09-03T18:08:21;3.85;;;2.00;;
33094;SDS011;19459;53.044;8.910;2022-09-03T18:11:06;11.07;;;2.13;;
33094;SDS011;19459;53.044;8.910;2022-09-03T18:16:26;8.63;;;3.10;;
33094;SDS011;19459;53.044;8.910;2022-09-03T18:19:38;4.15;;;2.50;;
33094;SDS011;19459;53.044;8.910;2022-09-03T18:22:28;15.05;;;8.25;;
33094;SDS011;19459;53.044;8.910;2022-09-03T18:25:23;7.95;;;5.03;;
33094;SDS011;19459;53.044;8.910;2022-09-03T18:28:09;9.07;;;4.03;;
33094;SDS011;19459;53.044;8.910;2022-09-03T18:30:59;10.77;;;5.03;;
33094;SDS011;19459;53.044;8.910;2022-09-03T18:33:43;8.88;;;5.30;;
33094;SDS011;19459;53.044;8.910;2022-09-03T18:36:27;5.88;;;4.00;;
33094;SDS011;19459;53.044;8.910;2022-09-03T18:39:24;8.10;;;4.32;;
33094;SDS011;19459;53.044;8.910;2022-09-03T18:52:13;5.55;;;1.83;;
33094;SDS011;19459;53.044;8.910;2022-09-03T18:58:51;4.88;;;1.90;;
33094;SDS011;19459;53.044;8.910;2022-09-03T19:02:06;4.82;;;1.92;;
33094;SDS011;19459;53.044;8.910;2022-09-03T19:05:33;2.33;;;1.50;;
33094;SDS011;19459;53.044;8.910;2022-09-03T19:08:45;5.70;;;2.10;;
33094;SDS011;19459;53.044;8.910;2022-09-03T19:15:04;3.83;;;2.03;;
33094;SDS011;19459;53.044;8.910;2022-09-03T19:21:53;2.92;;;1.60;;
33094;SDS011;19459;53.044;8.910;2022-09-03T19:24:42;5.93;;;2.58;;
33094;SDS011;19459;53.044;8.910;2022-09-03T19:30:45;3.83;;;1.58;;
33094;SDS011;19459;53.044;8.910;2022-09-03T19:33:56;3.13;;;1.45;;
33094;SDS011;19459;53.044;8.910;2022-09-03T19:37:20;4.28;;;1.77;;
33094;SDS011;19459;53.044;8.910;2022-09-03T19:46:38;4.78;;;2.15;;
33094;SDS011;19459;53.044;8.910;2022-09-03T19:53:09;4.93;;;1.63;;
33094;SDS011;19459;53.044;8.910;2022-09-03T19:56:21;3.05;;;1.60;;
33094;SDS011;19459;53.044;8.910;2022-09-03T19:59:15;5.90;;;1.33;;
33094;SDS011;19459;53.044;8.910;2022-09-03T20:02:03;3.45;;;1.50;;
33094;SDS011;19459;53.044;8.910;2022-09-03T20:04:50;3.10;;;1.60;;
33094;SDS011;19459;53.044;8.910;2022-09-03T20:07:41;3.28;;;1.42;;
33094;SDS011;19459;53.044;8.910;2022-09-03T20:10:28;4.85;;;1.50;;
33094;SDS011;19459;53.044;8.910;2022-09-03T20:13:02;3.17;;;1.45;;
33094;SDS011;19459;53.044;8.910;2022-09-03T20:15:49;4.88;;;1.40;;
33094;SDS011;19459;53.044;8.910;2022-09-03T20:21:38;8.57;;;1.88;;
33094;SDS011;19459;53.044;8.910;2022-09-03T20:27:50;5.53;;;1.50;;
33094;SDS011;19459;53.044;8.910;2022-09-03T20:30:36;6.13;;;1.40;;
33094;SDS011;19459;53.044;8.910;2022-09-03T20:41:58;2.38;;;1.42;;
33094;SDS011;19459;53.044;8.910;2022-09-03T20:45:09;7.97;;;1.60;;
33094;SDS011;19459;53.044;8.910;2022-09-03T20:48:04;5.38;;;1.88;;
33094;SDS011;19459;53.044;8.910;2022-09-03T20:51:02;1.85;;;1.33;;
33094;SDS011;19459;53.044;8.910;2022-09-03T21:16:20;3.65;;;1.70;;
33094;SDS011;19459;53.044;8.910;2022-09-03T21:24:44;3.03;;;1.80;;
33094;SDS011;19459;53.044;8.910;2022-09-03T21:27:22;2.13;;;1.33;;
33094;SDS011;19459;53.044;8.910;2022-09-03T21:30:04;4.20;;;1.67;;
33094;SDS011;19459;53.044;8.910;2022-09-03T21:32:39;2.67;;;1.50;;
33094;SDS011;19459;53.044;8.910;2022-09-03T21:35:32;3.30;;;2.13;;
33094;SDS011;19459;53.044;8.910;2022-09-03T21:38:05;4.10;;;1.50;;
33094;SDS011;19459;53.044;8.910;2022-09-03T21:40:42;7.55;;;2.40;;
33094;SDS011;19459;53.044;8.910;2022-09-03T21:46:20;8.13;;;2.38;;
33094;SDS011;19459;53.044;8.910;2022-09-03T21:48:54;4.82;;;2.17;;
33094;SDS011;19459;53.044;8.910;2022-09-03T21:51:26;3.38;;;1.65;;
33094;SDS011;19459;53.044;8.910;2022-09-03T22:02:41;4.43;;;2.28;;
33094;SDS011;19459;53.044;8.910;2022-09-03T22:05:07;4.88;;;1.83;;
33094;SDS011;19459;53.044;8.910;2022-09-03T22:15:15;3.88;;;1.85;;
33094;SDS011;19459;53.044;8.910;2022-09-03T22:17:49;2.53;;;1.50;;
33094;SDS011;19459;53.044;8.910;2022-09-03T22:20:24;3.92;;;1.70;;
33094;SDS011;19459;53.044;8.910;2022-09-03T22:23:25;2.28;;;1.35;;
33094;SDS011;19459;53.044;8.910;2022-09-03T22:28:31;4.82;;;1.83;;
33094;SDS011;19459;53.044;8.910;2022-09-03T22:31:15;2.47;;;1.77;;
33094;SDS011;19459;53.044;8.910;2022-09-03T22:34:24;2.00;;;1.65;;
33094;SDS011;19459;53.044;8.910;2022-09-03T22:37:04;3.40;;;1.63;;
33094;SDS011;19459;53.044;8.910;2022-09-03T22:54:55;2.65;;;1.52;;
33094;SDS011;19459;53.044;8.910;2022-09-03T22:57:48;6.38;;;1.67;;
33094;SDS011;19459;53.044;8.910;2022-09-03T23:05:50;2.15;;;1.40;;
33094;SDS011;19459;53.044;8.910;2022-09-03T23:08:28;2.42;;;1.67;;
33094;SDS011;19459;53.044;8.910;2022-09-03T23:13:50;2.08;;;1.50;;
33094;SDS011;19459;53.044;8.910;2022-09-03T23:16:35;2.45;;;1.92;;
33094;SDS011;19459;53.044;8.910;2022-09-03T23:19:31;2.22;;;1.55;;
33094;SDS011;19459;53.044;8.910;2022-09-03T23:22:15;4.25;;;1.27;;
33094;SDS011;19459;53.044;8.910;2022-09-03T23:24:43;4.97;;;1.90;;